createdAt,value
2022-08-30T00:01:00.152Z,67.15
2022-08-30T00:03:27.471Z,67.75
2022-08-30T00:05:56.405Z,67.88
2022-08-30T00:08:23.338Z,68.28
2022-08-30T00:10:51.185Z,68.30
2022-08-30T00:13:19.626Z,68.15
2022-08-30T00:15:47.277Z,68.48
2022-08-30T00:18:15.692Z,68.51
2022-08-30T00:20:42.640Z,69.10
2022-08-30T00:23:09.395Z,69.53
2022-08-30T00:25:35.958Z,69.46
2022-08-30T00:28:02.699Z,69.33
2022-08-30T00:30:29.633Z,69.86
2022-08-30T00:32:56.051Z,69.97
2022-08-30T00:35:23.120Z,70.21
2022-08-30T00:37:50.790Z,70.71
2022-08-30T00:40:20.393Z,70.96
2022-08-30T00:42:59.263Z,71.40
2022-08-30T00:45:40.591Z,71.08
2022-08-30T00:48:07.756Z,70.61
2022-08-30T00:50:39.302Z,70.94
2022-08-30T00:53:10.549Z,71.87
2022-08-30T00:55:37.262Z,71.54
2022-08-30T00:58:09.903Z,73.30
2022-08-30T01:00:36.813Z,73.16
2022-08-30T01:03:04.101Z,72.75
2022-08-30T01:05:30.827Z,72.67
2022-08-30T01:07:57.284Z,72.75
2022-08-30T01:10:23.890Z,72.50
2022-08-30T01:12:50.380Z,72.51
2022-08-30T01:15:16.848Z,73.48
2022-08-30T01:17:47.490Z,72.35
2022-08-30T01:20:24.126Z,73.21
2022-08-30T01:22:50.488Z,74.11
2022-08-30T01:25:22.180Z,74.20
2022-08-30T01:28:19.231Z,72.96
2022-08-30T01:30:46.309Z,73.19
2022-08-30T01:33:13.624Z,73.56
2022-08-30T01:35:54.225Z,73.95
2022-08-30T01:38:23.744Z,73.75
2022-08-30T01:40:50.757Z,74.16
2022-08-30T01:43:18.476Z,74.31
2022-08-30T01:45:45.201Z,74.06
2022-08-30T01:48:12.790Z,73.70
2022-08-30T01:50:41.293Z,74.42
2022-08-30T01:53:13.285Z,74.42
2022-08-30T01:55:40.278Z,74.39
2022-08-30T01:58:06.708Z,74.46
2022-08-30T02:00:33.328Z,75.19
2022-08-30T02:02:59.889Z,75.24
2022-08-30T02:05:26.437Z,75.96
2022-08-30T02:07:53.752Z,77.40
2022-08-30T02:10:20.945Z,76.92
2022-08-30T02:12:47.552Z,77.24
2022-08-30T02:15:14.229Z,76.66
2022-08-30T02:17:42.311Z,76.31
2022-08-30T02:20:09.481Z,76.62
2022-08-30T02:22:36.064Z,76.29
2022-08-30T02:25:04.729Z,77.10
2022-08-30T02:27:31.870Z,77.89
2022-08-30T02:29:58.292Z,77.00
2022-08-30T02:32:24.728Z,77.91
2022-08-30T02:34:51.148Z,78.02
2022-08-30T02:37:17.825Z,77.61
2022-08-30T02:39:44.283Z,78.24
2022-08-30T02:42:10.684Z,78.08
2022-08-30T02:44:37.167Z,78.85
2022-08-30T02:47:03.735Z,79.03
2022-08-30T02:49:33.669Z,79.33
2022-08-30T02:52:01.959Z,79.02
2022-08-30T02:54:28.557Z,78.61
2022-08-30T02:56:56.120Z,79.07
2022-08-30T02:59:22.504Z,79.32
2022-08-30T03:01:49.066Z,79.58
2022-08-30T03:04:15.861Z,79.64
2022-08-30T03:06:42.271Z,79.25
2022-08-30T03:09:08.712Z,80.25
2022-08-30T03:11:35.184Z,80.74
2022-08-30T03:14:01.739Z,80.45
2022-08-30T03:16:28.257Z,80.98
2022-08-30T03:18:54.906Z,80.31
2022-08-30T03:21:21.573Z,80.51
2022-08-30T03:23:48.051Z,80.96
2022-08-30T03:26:14.973Z,81.54
2022-08-30T03:28:42.760Z,81.41
2022-08-30T03:31:09.886Z,80.91
2022-08-30T03:33:36.777Z,81.39
2022-08-30T03:36:04.052Z,80.99
2022-08-30T03:38:31.095Z,80.71
2022-08-30T03:40:57.618Z,81.65
2022-08-30T03:43:25.305Z,82.07
2022-08-30T03:45:52.491Z,81.63
2022-08-30T03:48:18.989Z,82.07
2022-08-30T03:50:45.400Z,81.91
2022-08-30T03:53:11.809Z,82.17
2022-08-30T03:55:38.247Z,82.72
2022-08-30T03:58:04.915Z,82.45
2022-08-30T04:00:31.414Z,82.14
2022-08-30T04:02:57.785Z,81.70
2022-08-30T04:05:24.244Z,81.96
2022-08-30T04:07:50.745Z,82.81
2022-08-30T04:10:17.309Z,82.58
2022-08-30T04:12:48.936Z,82.30
2022-08-30T04:15:17.716Z,82.19
2022-08-30T04:17:44.256Z,82.53
2022-08-30T04:20:10.817Z,83.11
2022-08-30T04:22:37.365Z,84.04
2022-08-30T04:25:05.051Z,84.13
2022-08-30T04:27:32.301Z,83.48
2022-08-30T04:30:00.160Z,83.53
2022-08-30T04:32:27.065Z,81.79
2022-08-30T04:34:59.935Z,80.93
2022-08-30T04:37:26.696Z,81.71
2022-08-30T04:39:57.747Z,82.44
2022-08-30T04:42:24.701Z,82.69
2022-08-30T04:44:51.453Z,83.27
2022-08-30T04:47:18.565Z,82.79
2022-08-30T04:49:45.064Z,82.38
2022-08-30T04:52:11.586Z,83.33
2022-08-30T04:54:38.344Z,83.10
2022-08-30T04:57:06.119Z,83.30
2022-08-30T04:59:33.327Z,83.45
2022-08-30T05:02:00.425Z,83.65
2022-08-30T05:04:26.939Z,83.15
2022-08-30T05:06:53.854Z,83.36
2022-08-30T05:09:21.534Z,83.81
2022-08-30T05:11:48.342Z,83.47
2022-08-30T05:14:14.987Z,83.63
2022-08-30T05:16:41.779Z,82.99
2022-08-30T05:19:08.417Z,81.87
2022-08-30T05:21:34.882Z,80.37
2022-08-30T05:24:01.494Z,77.74
2022-08-30T05:26:33.925Z,75.34
2022-08-30T05:29:00.903Z,73.30
2022-08-30T05:31:35.296Z,72.71
2022-08-30T05:34:02.492Z,71.39
2022-08-30T05:36:31.754Z,71.19
2022-08-30T05:38:58.868Z,70.06
2022-08-30T05:41:26.399Z,69.41
2022-08-30T05:43:55.172Z,68.42
2022-08-30T05:46:22.112Z,68.16
2022-08-30T05:48:49.407Z,68.01
2022-08-30T05:51:18.185Z,68.71
2022-08-30T05:53:45.723Z,68.15
2022-08-30T05:56:16.098Z,68.73
2022-08-30T05:58:43.474Z,69.05
2022-08-30T06:01:40.643Z,69.70
2022-08-30T06:04:11.911Z,70.02
2022-08-30T06:06:40.093Z,70.05
2022-08-30T06:09:08.667Z,70.47
2022-08-30T06:11:35.548Z,70.79
2022-08-30T06:14:03.228Z,70.98
2022-08-30T06:16:30.031Z,70.89
2022-08-30T06:18:58.112Z,71.04
2022-08-30T06:21:27.938Z,71.21
2022-08-30T06:23:55.870Z,71.93
2022-08-30T06:26:22.770Z,71.35
2022-08-30T06:28:50.137Z,70.96
2022-08-30T06:31:19.979Z,69.96
2022-08-30T06:33:47.295Z,69.97
2022-08-30T06:36:16.665Z,70.19
2022-08-30T06:38:43.397Z,69.86
2022-08-30T06:41:15.832Z,68.19
2022-08-30T06:43:46.745Z,67.96
2022-08-30T06:46:19.846Z,68.19
2022-08-30T06:48:48.353Z,68.31
2022-08-30T06:51:19.159Z,67.90
2022-08-30T06:53:46.031Z,67.96
2022-08-30T06:56:16.365Z,67.35
2022-08-30T06:58:43.788Z,67.32
2022-08-30T07:01:19.893Z,67.21
2022-08-30T07:03:46.757Z,68.02
2022-08-30T07:06:14.805Z,67.81
2022-08-30T07:08:41.267Z,67.42
2022-08-30T07:11:08.322Z,65.59
2022-08-30T07:13:36.686Z,65.81
2022-08-30T07:16:10.718Z,65.48
2022-08-30T07:18:54.780Z,64.59
2022-08-30T07:21:28.016Z,63.38
2022-08-30T07:23:56.807Z,62.82
2022-08-30T07:26:27.058Z,62.76
2022-08-30T07:28:55.974Z,62.79
2022-08-30T07:31:24.477Z,62.01
2022-08-30T07:33:51.840Z,60.40
2022-08-30T07:36:18.450Z,60.49
2022-08-30T07:38:46.707Z,60.56
2022-08-30T07:41:27.568Z,60.19
2022-08-30T07:43:54.620Z,59.41
2022-08-30T07:46:21.557Z,58.44
2022-08-30T07:48:48.392Z,58.68
2022-08-30T07:51:18.449Z,57.92
2022-08-30T07:53:44.996Z,57.04
2022-08-30T07:56:11.957Z,57.68
2022-08-30T07:58:39.656Z,57.17
2022-08-30T08:01:08.388Z,56.65
2022-08-30T08:03:35.318Z,55.95
2022-08-30T08:06:05.081Z,54.80
2022-08-30T08:08:32.133Z,54.31
2022-08-30T08:10:58.844Z,53.83
2022-08-30T08:13:27.949Z,53.80
2022-08-30T08:15:55.276Z,53.75
2022-08-30T08:18:21.863Z,53.87
2022-08-30T08:20:48.260Z,53.48
2022-08-30T08:23:15.563Z,53.31
2022-08-30T08:25:42.148Z,53.60
2022-08-30T08:28:08.678Z,53.40
2022-08-30T08:30:37.616Z,53.36
2022-08-30T08:33:05.323Z,53.02
2022-08-30T08:35:32.399Z,52.85
2022-08-30T08:37:59.267Z,52.58
2022-08-30T08:40:26.938Z,51.88
2022-08-30T08:43:10.663Z,51.14
2022-08-30T08:46:05.698Z,52.09
2022-08-30T08:49:01.664Z,50.92
2022-08-30T08:51:51.105Z,50.92
2022-08-30T08:54:42.885Z,50.51
2022-08-30T08:57:13.872Z,49.96
2022-08-30T08:59:44.423Z,50.42
2022-08-30T09:02:19.685Z,49.38
2022-08-30T09:04:46.461Z,49.26
2022-08-30T09:07:22.475Z,48.64
2022-08-30T09:09:49.117Z,48.37
2022-08-30T09:12:15.735Z,47.96
2022-08-30T09:15:20.026Z,47.84
2022-08-30T09:18:05.595Z,47.46
2022-08-30T09:20:50.024Z,47.36
2022-08-30T09:23:16.396Z,46.49
2022-08-30T09:25:54.603Z,46.75
2022-08-30T09:28:43.264Z,45.71
2022-08-30T09:31:19.184Z,46.42
2022-08-30T09:34:05.551Z,46.00
2022-08-30T09:36:42.001Z,45.11
2022-08-30T09:39:17.611Z,45.22
2022-08-30T09:41:50.016Z,45.03
2022-08-30T09:44:23.509Z,44.57
2022-08-30T09:46:57.221Z,44.10
2022-08-30T09:49:35.637Z,44.33
2022-08-30T09:52:02.125Z,43.46
2022-08-30T09:54:38.584Z,43.38
2022-08-30T09:57:34.130Z,43.11
2022-08-30T10:00:15.362Z,42.63
2022-08-30T10:03:14.385Z,41.97
2022-08-30T10:05:55.070Z,41.95
2022-08-30T10:08:42.383Z,42.23
2022-08-30T10:11:18.941Z,41.57
2022-08-30T10:13:53.977Z,40.91
2022-08-30T10:16:26.291Z,40.45
2022-08-30T10:18:56.794Z,40.86
2022-08-30T10:21:31.517Z,40.67
2022-08-30T10:24:02.981Z,39.69
2022-08-30T10:26:29.971Z,40.73
2022-08-30T10:29:02.483Z,40.31
2022-08-30T10:31:48.752Z,41.07
2022-08-30T10:34:20.932Z,39.05
2022-08-30T10:37:03.127Z,39.56
2022-08-30T10:39:35.970Z,39.96
2022-08-30T10:42:11.440Z,39.79
2022-08-30T10:44:44.453Z,39.92
2022-08-30T10:47:32.883Z,39.99
2022-08-30T10:50:20.164Z,39.58
2022-08-30T10:53:13.092Z,39.25
2022-08-30T10:55:55.610Z,39.30
2022-08-30T10:58:22.577Z,39.00
2022-08-30T11:01:14.053Z,38.87
2022-08-30T11:03:49.577Z,38.47
2022-08-30T11:06:19.929Z,37.91
2022-08-30T11:08:58.575Z,38.08
2022-08-30T11:11:56.705Z,38.16
2022-08-30T11:14:25.397Z,38.24
2022-08-30T11:16:54.611Z,38.07
2022-08-30T11:19:26.575Z,37.54
2022-08-30T11:22:24.288Z,37.18
2022-08-30T11:25:14.355Z,37.22
2022-08-30T11:27:58.752Z,35.77
2022-08-30T11:30:26.909Z,35.73
2022-08-30T11:33:03.034Z,36.24
2022-08-30T11:35:48.455Z,35.87
2022-08-30T11:38:27.242Z,35.74
2022-08-30T11:40:57.709Z,35.87
2022-08-30T11:43:44.663Z,36.15
2022-08-30T11:46:26.380Z,35.57
2022-08-30T11:49:00.360Z,35.52
2022-08-30T11:52:08.537Z,35.96
2022-08-30T11:54:55.860Z,35.35
2022-08-30T11:57:25.361Z,35.86
2022-08-30T12:00:09.445Z,35.63
2022-08-30T12:02:47.301Z,35.89
2022-08-30T12:05:35.561Z,36.01
2022-08-30T12:08:27.972Z,35.82
2022-08-30T12:11:20.024Z,34.74
2022-08-30T12:13:46.482Z,35.19
2022-08-30T12:16:35.081Z,34.98
2022-08-30T12:19:18.169Z,35.58
2022-08-30T12:21:55.940Z,35.44
2022-08-30T12:24:26.291Z,34.93
2022-08-30T12:26:53.358Z,35.10
2022-08-30T12:29:28.201Z,35.01
2022-08-30T12:32:00.913Z,35.13
2022-08-30T12:34:50.200Z,35.07
2022-08-30T12:37:22.587Z,34.66
2022-08-30T12:40:01.943Z,34.66
2022-08-30T12:42:31.756Z,34.57
2022-08-30T12:45:04.407Z,34.63
2022-08-30T12:47:52.700Z,33.77
2022-08-30T12:50:24.307Z,33.51
2022-08-30T12:53:02.877Z,34.05
2022-08-30T12:55:36.167Z,33.28
2022-08-30T12:58:09.414Z,33.57
2022-08-30T13:00:44.688Z,34.03
2022-08-30T13:03:24.174Z,33.35
2022-08-30T13:05:53.216Z,33.33
2022-08-30T13:08:21.484Z,33.28
2022-08-30T13:11:08.328Z,33.57
2022-08-30T13:13:37.616Z,33.22
2022-08-30T13:16:12.796Z,32.97
2022-08-30T13:18:39.851Z,33.34
2022-08-30T13:21:28.986Z,32.68
2022-08-30T13:23:58.689Z,32.72
2022-08-30T13:26:27.485Z,32.93
2022-08-30T13:28:59.003Z,33.04
2022-08-30T13:31:27.873Z,32.42
2022-08-30T13:33:55.464Z,32.00
2022-08-30T13:36:28.212Z,32.72
2022-08-30T13:38:55.358Z,32.46
2022-08-30T13:41:21.982Z,32.41
2022-08-30T13:46:36.408Z,32.21
2022-08-30T13:49:06.518Z,32.39
2022-08-30T13:51:33.351Z,32.40
2022-08-30T13:54:02.421Z,32.47
2022-08-30T13:56:32.030Z,31.78
2022-08-30T13:58:59.738Z,31.81
2022-08-30T14:01:30.168Z,31.57
2022-08-30T14:04:17.031Z,31.64
2022-08-30T14:09:30.194Z,30.52
2022-08-30T14:11:57.020Z,30.66
2022-08-30T14:14:39.302Z,30.49
2022-08-30T14:17:08.979Z,31.22
2022-08-30T14:19:35.684Z,31.53
2022-08-30T14:22:02.174Z,31.53
2022-08-30T14:24:29.217Z,30.64
2022-08-30T14:26:55.881Z,31.36
2022-08-30T14:29:26.058Z,31.15
2022-08-30T14:31:52.870Z,31.22
2022-08-30T14:34:21.231Z,31.52
2022-08-30T14:36:47.631Z,31.20
2022-08-30T14:39:17.865Z,31.06
2022-08-30T14:41:50.385Z,31.33
2022-08-30T14:44:18.426Z,31.85
2022-08-30T14:46:45.294Z,31.15
2022-08-30T14:49:13.248Z,31.06
2022-08-30T14:51:40.713Z,31.40
2022-08-30T14:54:07.920Z,31.37
2022-08-30T14:56:34.643Z,31.09
2022-08-30T14:59:02.869Z,31.58
2022-08-30T15:01:31.172Z,32.07
2022-08-30T15:03:58.448Z,31.84
2022-08-30T15:06:26.489Z,31.51
2022-08-30T15:08:53.390Z,31.52
2022-08-30T15:11:21.510Z,32.33
2022-08-30T15:13:48.402Z,32.18
2022-08-30T15:16:21.401Z,32.07
2022-08-30T15:18:48.784Z,32.22
2022-08-30T15:21:32.553Z,32.22
2022-08-30T15:24:02.415Z,31.98
2022-08-30T15:26:29.284Z,32.23
2022-08-30T15:28:56.678Z,32.50
2022-08-30T15:31:33.811Z,32.35
2022-08-30T15:34:01.166Z,32.03
2022-08-30T15:36:29.073Z,32.05
2022-08-30T15:38:56.255Z,32.16
2022-08-30T15:41:23.429Z,31.62
2022-08-30T15:43:50.300Z,32.15
2022-08-30T15:46:35.227Z,31.50
2022-08-30T15:49:05.282Z,31.58
2022-08-30T15:51:41.033Z,31.72
2022-08-30T15:54:13.536Z,31.61
2022-08-30T15:56:41.910Z,31.89
2022-08-30T15:59:09.346Z,32.47
2022-08-30T16:01:36.581Z,31.93
2022-08-30T16:04:03.980Z,32.26
2022-08-30T16:06:35.180Z,32.46
2022-08-30T16:09:01.832Z,32.38
2022-08-30T16:11:28.239Z,32.72
2022-08-30T16:13:57.799Z,32.72
2022-08-30T16:16:25.082Z,32.58
2022-08-30T16:18:54.243Z,31.87
2022-08-30T16:21:25.473Z,31.69
2022-08-30T16:23:55.111Z,31.59
2022-08-30T16:26:22.133Z,31.72
2022-08-30T16:28:48.677Z,31.80
2022-08-30T16:31:16.918Z,32.54
2022-08-30T16:33:44.867Z,32.38
2022-08-30T16:36:12.001Z,32.62
2022-08-30T16:38:39.553Z,33.01
2022-08-30T16:41:09.781Z,32.50
2022-08-30T16:43:36.890Z,32.35
2022-08-30T16:46:06.342Z,32.51
2022-08-30T16:48:34.067Z,33.07
2022-08-30T16:51:11.493Z,33.28
2022-08-30T16:53:38.963Z,32.58
2022-08-30T16:56:18.832Z,33.06
2022-08-30T16:58:46.870Z,33.52
2022-08-30T17:01:14.670Z,33.27
2022-08-30T17:03:43.868Z,33.61
2022-08-30T17:06:10.493Z,33.94
2022-08-30T17:08:37.236Z,33.51
2022-08-30T17:11:04.165Z,34.60
2022-08-30T17:13:31.601Z,34.16
2022-08-30T17:15:59.742Z,34.01
2022-08-30T17:18:26.305Z,33.52
2022-08-30T17:20:52.752Z,34.22
2022-08-30T17:23:19.274Z,33.40
2022-08-30T17:25:45.750Z,33.87
2022-08-30T17:28:12.345Z,34.28
2022-08-30T17:30:39.004Z,34.47
2022-08-30T17:33:08.172Z,33.88
2022-08-30T17:35:35.036Z,34.36
2022-08-30T17:38:01.581Z,34.75
2022-08-30T17:40:28.059Z,35.21
2022-08-30T17:42:54.690Z,35.52
2022-08-30T17:45:21.245Z,35.87
2022-08-30T17:47:48.685Z,36.01
2022-08-30T17:50:16.206Z,36.13
2022-08-30T17:52:46.192Z,36.53
2022-08-30T17:55:13.796Z,35.97
2022-08-30T17:57:41.893Z,35.89
2022-08-30T18:00:11.751Z,36.26
2022-08-30T18:02:42.684Z,36.15
2022-08-30T18:05:10.515Z,36.57
2022-08-30T18:07:37.017Z,36.74
2022-08-30T18:10:05.369Z,37.22
2022-08-30T18:12:33.801Z,37.32
2022-08-30T18:15:01.053Z,37.04
2022-08-30T18:17:39.101Z,37.38
2022-08-30T18:20:07.730Z,37.84
2022-08-30T18:22:34.180Z,37.69
2022-08-30T18:25:02.702Z,37.89
2022-08-30T18:27:29.400Z,38.12
2022-08-30T18:29:55.830Z,38.78
2022-08-30T18:32:22.279Z,38.86
2022-08-30T18:35:02.504Z,39.17
2022-08-30T18:37:28.965Z,39.18
2022-08-30T18:39:55.407Z,39.38
2022-08-30T18:42:21.836Z,39.35
2022-08-30T18:44:48.389Z,39.48
2022-08-30T18:47:14.796Z,39.69
2022-08-30T18:49:41.268Z,39.82
2022-08-30T18:52:09.829Z,40.08
2022-08-30T18:54:41.702Z,40.19
2022-08-30T18:57:09.860Z,40.76
2022-08-30T18:59:37.084Z,41.18
2022-08-30T19:02:05.468Z,41.27
2022-08-30T19:04:35.796Z,41.31
2022-08-30T19:07:03.995Z,41.65
2022-08-30T19:09:30.526Z,41.69
2022-08-30T19:11:56.980Z,41.92
2022-08-30T19:14:23.445Z,42.34
2022-08-30T19:16:54.729Z,41.92
2022-08-30T19:19:21.516Z,42.29
2022-08-30T19:21:48.861Z,41.99
2022-08-30T19:24:17.797Z,41.79
2022-08-30T19:26:46.694Z,42.56
2022-08-30T19:29:14.626Z,42.64
2022-08-30T19:31:43.600Z,42.66
2022-08-30T19:34:11.391Z,43.18
2022-08-30T19:36:37.901Z,43.23
2022-08-30T19:39:04.420Z,43.15
2022-08-30T19:41:31.314Z,42.71
2022-08-30T19:43:57.959Z,43.38
2022-08-30T19:46:27.705Z,43.18
2022-08-30T19:48:54.141Z,43.44
2022-08-30T19:51:20.616Z,43.91
2022-08-30T19:53:48.462Z,43.76
2022-08-30T19:56:14.892Z,43.81
2022-08-30T19:58:41.463Z,43.77
2022-08-30T20:01:11.988Z,44.34
2022-08-30T20:03:54.444Z,44.36
2022-08-30T20:06:23.733Z,44.32
2022-08-30T20:08:50.187Z,44.53
2022-08-30T20:11:20.793Z,45.20
2022-08-30T20:13:48.340Z,45.46
2022-08-30T20:16:15.691Z,45.46
2022-08-30T20:18:43.449Z,45.96
2022-08-30T20:21:13.870Z,46.25
2022-08-30T20:23:41.934Z,46.70
2022-08-30T20:26:12.916Z,46.93
2022-08-30T20:28:39.986Z,46.68
2022-08-30T20:31:07.955Z,47.22
2022-08-30T20:33:37.529Z,47.00
2022-08-30T20:36:08.461Z,47.19
2022-08-30T20:38:35.155Z,47.09
2022-08-30T20:41:08.012Z,47.46
2022-08-30T20:43:34.423Z,47.48
2022-08-30T20:46:07.321Z,47.63
2022-08-30T20:48:33.875Z,47.98
2022-08-30T20:51:03.811Z,48.29
2022-08-30T20:53:30.795Z,47.79
2022-08-30T20:55:57.235Z,48.02
2022-08-30T20:58:23.679Z,48.40
2022-08-30T21:00:53.437Z,48.20
2022-08-30T21:03:27.637Z,48.12
2022-08-30T21:05:55.755Z,48.30
2022-08-30T21:08:22.326Z,48.42
2022-08-30T21:10:48.924Z,48.49
2022-08-30T21:13:15.383Z,49.13
2022-08-30T21:15:45.775Z,48.46
2022-08-30T21:18:15.573Z,48.52
2022-08-30T21:20:42.349Z,48.94
2022-08-30T21:23:09.855Z,49.32
2022-08-30T21:25:41.007Z,49.23
2022-08-30T21:28:08.262Z,49.31
2022-08-30T21:30:36.350Z,49.80
2022-08-30T21:33:06.997Z,50.06
2022-08-30T21:35:52.994Z,49.67
2022-08-30T21:38:20.016Z,49.54
2022-08-30T21:40:48.373Z,50.01
2022-08-30T21:43:15.956Z,50.11
2022-08-30T21:45:43.954Z,49.83
2022-08-30T21:48:11.601Z,49.92
2022-08-30T21:50:39.909Z,49.96
2022-08-30T21:53:06.421Z,50.06
2022-08-30T21:55:33.007Z,49.93
2022-08-30T21:57:59.509Z,50.04
2022-08-30T22:00:26.182Z,50.44
2022-08-30T22:02:53.146Z,49.89
2022-08-30T22:05:20.231Z,49.92
2022-08-30T22:07:46.659Z,49.66
2022-08-30T22:10:13.618Z,50.37
2022-08-30T22:12:41.390Z,50.33
2022-08-30T22:15:09.308Z,50.12
2022-08-30T22:17:35.712Z,50.39
2022-08-30T22:20:02.442Z,50.46
2022-08-30T22:22:28.907Z,50.87
2022-08-30T22:24:55.302Z,50.69
2022-08-30T22:27:21.779Z,51.00
2022-08-30T22:29:48.284Z,51.38
2022-08-30T22:32:14.905Z,51.32
2022-08-30T22:34:45.347Z,51.03
2022-08-30T22:37:11.834Z,51.76
2022-08-30T22:39:38.267Z,51.32
2022-08-30T22:42:05.165Z,51.19
2022-08-30T22:44:32.133Z,51.49
2022-08-30T22:46:59.906Z,51.59
2022-08-30T22:49:26.293Z,51.89
2022-08-30T22:51:52.795Z,52.12
2022-08-30T22:54:19.327Z,52.08
2022-08-30T22:56:46.271Z,52.18
2022-08-30T22:59:12.696Z,51.53
2022-08-30T23:01:43.136Z,52.54
2022-08-30T23:04:11.679Z,52.21
2022-08-30T23:06:38.279Z,51.03
2022-08-30T23:09:06.032Z,50.88
2022-08-30T23:11:33.325Z,51.48
2022-08-30T23:14:01.045Z,51.33
2022-08-30T23:16:27.562Z,51.76
2022-08-30T23:18:54.171Z,51.66
2022-08-30T23:21:24.457Z,52.53
2022-08-30T23:24:10.710Z,52.74
2022-08-30T23:26:56.888Z,52.60
2022-08-30T23:29:42.205Z,53.05
2022-08-30T23:32:27.524Z,53.49
2022-08-30T23:35:12.873Z,53.77
2022-08-30T23:37:58.128Z,53.79
2022-08-30T23:40:47.480Z,54.11
2022-08-30T23:43:32.735Z,54.08
2022-08-30T23:46:19.402Z,54.28
2022-08-30T23:49:05.984Z,54.05
2022-08-30T23:51:51.882Z,53.72
2022-08-30T23:54:37.082Z,54.08
2022-08-30T23:57:23.370Z,53.79
